createdAt,value
2023-08-20T00:03:37.760Z,20.59
2023-08-20T00:08:45.606Z,20.52
2023-08-20T00:13:53.396Z,20.47
2023-08-20T00:19:02.169Z,20.41
2023-08-20T00:24:11.665Z,20.38
2023-08-20T00:29:19.207Z,20.33
2023-08-20T00:34:26.733Z,20.30
2023-08-20T00:39:34.514Z,20.27
2023-08-20T00:44:43.439Z,20.23
2023-08-20T00:49:51.519Z,20.19
2023-08-20T00:55:00.590Z,20.14
2023-08-20T01:00:12.468Z,20.07
2023-08-20T01:05:20.405Z,20.03
2023-08-20T01:10:33.771Z,19.95
2023-08-20T01:15:41.479Z,19.90
2023-08-20T01:20:54.180Z,19.84
2023-08-20T01:26:20.041Z,19.78
2023-08-20T01:31:28.910Z,19.72
2023-08-20T01:36:36.674Z,19.69
2023-08-20T01:41:44.504Z,19.64
2023-08-20T01:46:52.105Z,19.60
2023-08-20T01:52:00.636Z,19.55
2023-08-20T01:57:08.521Z,19.50
2023-08-20T02:02:16.171Z,19.43
2023-08-20T02:07:23.722Z,19.37
2023-08-20T02:12:31.683Z,19.33
2023-08-20T02:17:39.656Z,19.29
2023-08-20T02:22:47.256Z,19.25
2023-08-20T02:27:56.601Z,19.21
2023-08-20T02:33:04.318Z,19.16
2023-08-20T02:38:12.679Z,19.10
2023-08-20T02:43:21.323Z,19.04
2023-08-20T02:48:29.272Z,18.98
2023-08-20T02:53:37.058Z,18.94
2023-08-20T02:58:44.571Z,18.88
2023-08-20T03:03:52.282Z,18.83
2023-08-20T03:09:00.362Z,18.80
2023-08-20T03:14:08.407Z,18.76
2023-08-20T03:19:17.457Z,18.71
2023-08-20T03:24:24.840Z,18.66
2023-08-20T03:29:32.335Z,18.62
2023-08-20T03:34:40.327Z,18.60
2023-08-20T03:39:48.296Z,18.57
2023-08-20T03:44:56.191Z,18.54
2023-08-20T03:50:04.021Z,18.51
2023-08-20T03:55:12.602Z,18.47
2023-08-20T04:00:20.684Z,18.47
2023-08-20T04:05:28.715Z,18.46
2023-08-20T04:10:37.203Z,18.45
2023-08-20T04:15:48.056Z,18.45
2023-08-20T04:20:57.136Z,18.41
2023-08-20T04:26:05.210Z,18.48
2023-08-20T04:31:13.009Z,18.51
2023-08-20T04:36:29.184Z,18.57
2023-08-20T04:41:36.806Z,18.64
2023-08-20T04:46:45.487Z,18.75
2023-08-20T04:51:54.644Z,18.91
2023-08-20T04:57:02.448Z,19.11
2023-08-20T05:02:10.406Z,19.35
2023-08-20T05:07:19.861Z,19.58
2023-08-20T05:12:27.400Z,19.82
2023-08-20T05:17:34.693Z,20.05
2023-08-20T05:22:43.964Z,20.27
2023-08-20T05:27:51.690Z,20.51
2023-08-20T05:32:59.534Z,20.74
2023-08-20T05:38:08.714Z,20.98
2023-08-20T05:43:16.644Z,21.20
2023-08-20T05:48:24.490Z,21.45
2023-08-20T05:53:33.093Z,21.69
2023-08-20T05:58:40.894Z,21.89
2023-08-20T06:03:49.338Z,22.07
2023-08-20T06:09:08.393Z,22.23
2023-08-20T06:14:17.230Z,22.39
2023-08-20T06:19:24.626Z,22.55
2023-08-20T06:24:31.869Z,22.69
2023-08-20T06:29:40.384Z,22.87
2023-08-20T06:34:47.714Z,23.02
2023-08-20T06:39:55.360Z,23.20
2023-08-20T06:45:02.864Z,23.40
2023-08-20T06:50:12.106Z,23.60
2023-08-20T06:55:19.715Z,23.80
2023-08-20T07:00:27.186Z,23.98
2023-08-20T07:05:34.713Z,24.14
2023-08-20T07:10:42.414Z,24.30
2023-08-20T07:15:49.914Z,24.44
2023-08-20T07:20:58.149Z,24.51
2023-08-20T07:26:13.684Z,24.72
2023-08-20T07:31:21.192Z,24.87
2023-08-20T07:36:29.529Z,25.03
2023-08-20T07:41:37.345Z,25.19
2023-08-20T07:46:44.982Z,25.35
2023-08-20T07:51:53.865Z,25.53
2023-08-20T07:57:01.248Z,25.64
2023-08-20T08:02:09.449Z,25.86
2023-08-20T08:07:16.836Z,26.00
2023-08-20T08:12:24.674Z,26.15
2023-08-20T08:17:32.183Z,26.30
2023-08-20T08:22:39.887Z,26.45
2023-08-20T08:27:59.593Z,26.62
2023-08-20T08:33:09.575Z,26.80
2023-08-20T08:38:17.165Z,26.97
2023-08-20T08:43:25.144Z,27.11
2023-08-20T08:48:33.185Z,27.23
2023-08-20T08:53:41.091Z,27.37
2023-08-20T08:58:48.830Z,27.47
2023-08-20T09:03:56.699Z,27.61
2023-08-20T09:09:10.614Z,27.74
2023-08-20T09:14:31.552Z,27.89
2023-08-20T09:19:39.066Z,28.04
2023-08-20T09:24:47.688Z,28.18
2023-08-20T09:29:56.400Z,28.31
2023-08-20T09:35:04.055Z,28.41
2023-08-20T09:40:14.206Z,28.50
2023-08-20T09:45:22.453Z,28.62
2023-08-20T09:50:34.045Z,28.76
2023-08-20T09:55:45.084Z,28.93
2023-08-20T10:00:53.372Z,29.03
2023-08-20T10:06:03.149Z,29.15
2023-08-20T10:11:10.651Z,29.26
2023-08-20T10:16:22.596Z,29.35
2023-08-20T10:21:47.485Z,29.45
2023-08-20T10:27:12.612Z,29.55
2023-08-20T10:32:20.226Z,29.68
2023-08-20T10:37:38.067Z,29.81
2023-08-20T10:42:46.445Z,29.94
2023-08-20T10:47:53.926Z,30.02
2023-08-20T10:53:01.703Z,30.07
2023-08-20T10:58:10.108Z,30.11
2023-08-20T11:03:18.183Z,30.18
2023-08-20T11:08:25.797Z,30.27
2023-08-20T11:13:35.108Z,30.39
2023-08-20T11:18:43.198Z,30.53
2023-08-20T11:23:51.443Z,30.64
2023-08-20T11:28:59.107Z,30.71
2023-08-20T11:34:07.255Z,30.77
2023-08-20T11:39:15.002Z,30.79
2023-08-20T11:44:27.920Z,30.82
2023-08-20T11:49:35.373Z,30.84
2023-08-20T11:54:44.795Z,30.86
2023-08-20T11:59:52.341Z,30.89
2023-08-20T12:05:01.995Z,30.95
2023-08-20T12:10:25.675Z,31.05
2023-08-20T12:15:33.232Z,31.15
2023-08-20T12:20:40.946Z,31.26
2023-08-20T12:25:52.521Z,31.35
2023-08-20T12:31:00.385Z,31.38
2023-08-20T12:36:09.290Z,31.39
2023-08-20T12:41:17.129Z,31.42
2023-08-20T12:46:24.747Z,31.44
2023-08-20T12:51:32.714Z,31.47
2023-08-20T12:56:40.598Z,31.51
2023-08-20T13:01:48.790Z,31.55
2023-08-20T13:06:58.406Z,31.57
2023-08-20T13:12:11.021Z,31.61
2023-08-20T13:17:20.840Z,31.67
2023-08-20T13:22:28.632Z,31.75
2023-08-20T13:27:36.531Z,31.83
2023-08-20T13:32:44.362Z,31.88
2023-08-20T13:37:51.959Z,31.88
2023-08-20T13:42:59.379Z,31.84
2023-08-20T13:48:09.123Z,31.78
2023-08-20T13:53:16.694Z,31.72
2023-08-20T13:58:24.214Z,31.66
2023-08-20T14:03:31.726Z,31.58
2023-08-20T14:08:39.397Z,31.51
2023-08-20T14:13:47.195Z,31.44
2023-08-20T14:18:54.711Z,31.39
2023-08-20T14:24:02.734Z,31.36
2023-08-20T14:29:10.202Z,31.34
2023-08-20T14:34:17.572Z,31.29
2023-08-20T14:39:25.159Z,31.24
2023-08-20T14:44:32.781Z,31.20
2023-08-20T14:49:40.844Z,31.14
2023-08-20T14:54:48.264Z,31.07
2023-08-20T14:59:55.871Z,31.03
2023-08-20T15:05:03.706Z,30.99
2023-08-20T15:10:12.434Z,30.97
2023-08-20T15:15:20.196Z,30.96
2023-08-20T15:20:27.972Z,30.97
2023-08-20T15:25:35.649Z,30.99
2023-08-20T15:30:43.248Z,31.00
2023-08-20T15:35:51.100Z,30.98
2023-08-20T15:41:00.830Z,30.93
2023-08-20T15:46:08.229Z,30.88
2023-08-20T15:51:15.543Z,30.83
2023-08-20T15:56:22.900Z,30.80
2023-08-20T16:01:30.221Z,30.79
2023-08-20T16:06:37.530Z,30.78
2023-08-20T16:11:44.804Z,30.77
2023-08-20T16:16:53.184Z,30.77
2023-08-20T16:22:00.449Z,30.77
2023-08-20T16:27:08.740Z,30.75
2023-08-20T16:32:16.147Z,30.72
2023-08-20T16:37:23.409Z,30.68
2023-08-20T16:42:30.906Z,30.61
2023-08-20T16:47:38.410Z,30.55
2023-08-20T16:52:46.045Z,30.46
2023-08-20T16:57:55.199Z,30.37
2023-08-20T17:03:02.913Z,30.28
2023-08-20T17:08:11.248Z,30.19
2023-08-20T17:13:18.970Z,30.05
2023-08-20T17:18:26.876Z,29.90
2023-08-20T17:23:34.405Z,29.77
2023-08-20T17:28:43.755Z,29.64
2023-08-20T17:33:51.370Z,29.50
2023-08-20T17:39:01.223Z,29.38
2023-08-20T17:44:09.609Z,29.26
2023-08-20T17:49:18.404Z,29.15
2023-08-20T17:54:25.984Z,29.05
2023-08-20T17:59:34.487Z,28.95
2023-08-20T18:04:42.659Z,28.85
2023-08-20T18:09:50.606Z,28.76
2023-08-20T18:14:58.041Z,28.66
2023-08-20T18:20:06.072Z,28.58
2023-08-20T18:25:14.401Z,28.48
2023-08-20T18:30:22.890Z,28.39
2023-08-20T18:35:30.921Z,28.30
2023-08-20T18:40:38.485Z,28.21
2023-08-20T18:45:46.231Z,28.11
2023-08-20T18:50:53.885Z,28.01
2023-08-20T18:56:01.837Z,27.91
2023-08-20T19:01:09.814Z,27.80
2023-08-20T19:06:18.490Z,27.69
2023-08-20T19:11:26.603Z,27.57
2023-08-20T19:16:35.232Z,27.43
2023-08-20T19:21:43.136Z,27.28
2023-08-20T19:26:50.923Z,27.13
2023-08-20T19:31:59.958Z,27.00
2023-08-20T19:37:08.234Z,26.82
2023-08-20T19:42:17.115Z,26.69
2023-08-20T19:47:25.800Z,26.55
2023-08-20T19:52:33.881Z,26.41
2023-08-20T19:57:41.877Z,26.30
2023-08-20T20:02:54.121Z,26.16
2023-08-20T20:08:02.564Z,25.98
2023-08-20T20:13:10.242Z,25.87
2023-08-20T20:18:17.724Z,25.71
2023-08-20T20:23:25.230Z,25.56
2023-08-20T20:28:33.757Z,25.39
2023-08-20T20:33:42.274Z,25.26
2023-08-20T20:38:51.088Z,25.12
2023-08-20T20:43:58.467Z,25.00
2023-08-20T20:49:06.153Z,24.87
2023-08-20T20:54:13.561Z,24.76
2023-08-20T20:59:22.532Z,24.67
2023-08-20T21:04:31.286Z,24.57
2023-08-20T21:09:38.650Z,24.47
2023-08-20T21:14:45.864Z,24.38
2023-08-20T21:19:55.282Z,24.30
2023-08-20T21:25:04.492Z,24.24
2023-08-20T21:30:15.866Z,24.19
2023-08-20T21:35:23.741Z,24.14
2023-08-20T21:40:31.272Z,24.05
2023-08-20T21:45:40.582Z,23.97
2023-08-20T21:50:47.929Z,23.89
2023-08-20T21:56:01.591Z,23.81
2023-08-20T22:01:09.626Z,23.77
2023-08-20T22:06:17.765Z,23.73
2023-08-20T22:11:24.907Z,23.70
2023-08-20T22:16:32.030Z,23.66
2023-08-20T22:21:39.528Z,23.62
2023-08-20T22:26:46.908Z,23.59
2023-08-20T22:31:54.118Z,23.54
2023-08-20T22:37:01.929Z,23.51
2023-08-20T22:42:10.003Z,23.45
2023-08-20T22:47:17.368Z,23.41
2023-08-20T22:52:24.618Z,23.36
2023-08-20T22:57:32.558Z,23.32
2023-08-20T23:02:40.699Z,23.27
2023-08-20T23:07:48.687Z,23.20
2023-08-20T23:12:56.269Z,23.10
2023-08-20T23:18:05.037Z,23.00
2023-08-20T23:23:12.660Z,22.89
2023-08-20T23:28:20.809Z,22.79
2023-08-20T23:33:28.744Z,22.69
2023-08-20T23:38:41.729Z,22.58
2023-08-20T23:43:49.504Z,22.48
2023-08-20T23:48:57.691Z,22.38
2023-08-20T23:54:05.754Z,22.32
2023-08-20T23:59:13.741Z,22.22
